createdAt,value
2019-02-21T00:00:49.978Z,4.08
2019-02-21T00:01:50.120Z,4.22
2019-02-21T00:02:50.266Z,4.22
2019-02-21T00:03:50.410Z,4.21
2019-02-21T00:04:50.558Z,4.07
2019-02-21T00:05:50.702Z,4.14
2019-02-21T00:06:50.846Z,4.14
2019-02-21T00:07:50.990Z,4.18
2019-02-21T00:08:51.135Z,4.16
2019-02-21T00:09:51.284Z,4.12
2019-02-21T00:10:51.430Z,4.07
2019-02-21T00:11:51.578Z,3.97
2019-02-21T00:12:51.721Z,4.00
2019-02-21T00:13:51.875Z,3.90
2019-02-21T00:14:52.021Z,3.89
2019-02-21T00:15:52.167Z,3.94
2019-02-21T00:16:52.312Z,4.03
2019-02-21T00:17:52.459Z,4.08
2019-02-21T00:18:52.604Z,4.03
2019-02-21T00:19:52.750Z,4.07
2019-02-21T00:20:52.892Z,4.10
2019-02-21T00:21:53.039Z,4.19
2019-02-21T00:22:53.181Z,4.12
2019-02-21T00:23:53.361Z,4.21
2019-02-21T00:24:53.472Z,4.10
2019-02-21T00:25:55.766Z,4.12
2019-02-21T00:26:53.762Z,4.15
2019-02-21T00:27:53.910Z,4.21
2019-02-21T00:28:54.093Z,4.16
2019-02-21T00:29:54.201Z,4.00
2019-02-21T00:30:54.348Z,4.16
2019-02-21T00:31:54.502Z,4.15
2019-02-21T00:32:54.639Z,4.12
2019-02-21T00:33:54.789Z,4.07
2019-02-21T00:34:54.931Z,4.03
2019-02-21T00:35:55.079Z,4.03
2019-02-21T00:36:55.223Z,4.12
2019-02-21T00:37:55.367Z,4.12
2019-02-21T00:38:55.515Z,4.00
2019-02-21T00:39:55.660Z,4.01
2019-02-21T00:40:55.809Z,3.97
2019-02-21T00:41:55.952Z,3.97
2019-02-21T00:42:56.097Z,4.01
2019-02-21T00:43:56.242Z,4.08
2019-02-21T00:44:56.387Z,4.07
2019-02-21T00:45:56.534Z,4.00
2019-02-21T00:46:56.679Z,4.10
2019-02-21T00:47:56.825Z,4.01
2019-02-21T00:48:56.970Z,3.97
2019-02-21T00:49:57.114Z,3.98
2019-02-21T00:50:57.263Z,4.04
2019-02-21T00:51:57.410Z,4.04
2019-02-21T00:52:57.554Z,4.06
2019-02-21T00:53:57.697Z,3.98
2019-02-21T00:54:57.848Z,4.03
2019-02-21T00:55:57.991Z,3.89
2019-02-21T00:56:58.135Z,3.85
2019-02-21T00:57:58.283Z,3.86
2019-02-21T00:58:58.429Z,3.98
2019-02-21T00:59:58.575Z,4.04
2019-02-21T01:00:58.721Z,3.90
2019-02-21T01:01:58.865Z,4.00
2019-02-21T01:02:59.012Z,3.94
2019-02-21T01:03:59.159Z,4.04
2019-02-21T01:04:59.301Z,4.08
2019-02-21T01:05:59.450Z,4.10
2019-02-21T01:06:59.590Z,4.03
2019-02-21T01:07:59.735Z,4.10
2019-02-21T01:08:59.881Z,4.08
2019-02-21T01:10:00.026Z,4.06
2019-02-21T01:11:00.176Z,3.94
2019-02-21T01:12:00.316Z,3.92
2019-02-21T01:13:00.460Z,3.98
2019-02-21T01:14:00.605Z,4.04
2019-02-21T01:15:00.752Z,3.97
2019-02-21T01:16:00.899Z,4.06
2019-02-21T01:17:01.040Z,4.04
2019-02-21T01:18:01.184Z,3.98
2019-02-21T01:19:01.333Z,3.92
2019-02-21T01:20:01.493Z,3.98
2019-02-21T01:21:01.623Z,3.90
2019-02-21T01:22:01.770Z,3.94
2019-02-21T01:23:01.912Z,3.92
2019-02-21T01:24:04.735Z,3.92
2019-02-21T01:25:02.206Z,3.89
2019-02-21T01:26:02.351Z,3.98
2019-02-21T01:27:02.497Z,3.90
2019-02-21T01:28:02.642Z,3.82
2019-02-21T01:29:02.787Z,3.97
2019-02-21T01:30:02.933Z,3.82
2019-02-21T01:31:03.079Z,3.76
2019-02-21T01:32:03.226Z,3.72
2019-02-21T01:33:03.389Z,3.79
2019-02-21T01:34:03.520Z,3.68
2019-02-21T01:35:03.661Z,3.75
2019-02-21T01:36:03.806Z,3.85
2019-02-21T01:37:03.949Z,3.85
2019-02-21T01:38:04.095Z,3.68
2019-02-21T01:39:04.249Z,3.60
2019-02-21T01:40:04.386Z,3.62
2019-02-21T01:41:04.531Z,3.60
2019-02-21T01:42:04.674Z,3.58
2019-02-21T01:43:04.819Z,3.70
2019-02-21T01:44:04.963Z,3.65
2019-02-21T01:45:05.109Z,3.64
2019-02-21T01:46:05.256Z,3.61
2019-02-21T01:47:05.398Z,3.50
2019-02-21T01:48:05.545Z,3.62
2019-02-21T01:49:05.691Z,3.53
2019-02-21T01:50:05.836Z,3.62
2019-02-21T01:51:05.981Z,3.67
2019-02-21T01:52:06.125Z,3.67
2019-02-21T01:53:06.270Z,3.70
2019-02-21T01:54:06.413Z,3.57
2019-02-21T01:55:06.560Z,3.58
2019-02-21T01:56:06.706Z,3.62
2019-02-21T01:57:06.848Z,3.62
2019-02-21T01:58:06.993Z,3.62
2019-02-21T01:59:07.142Z,3.61
2019-02-21T02:00:07.288Z,3.58
2019-02-21T02:01:08.819Z,3.49
2019-02-21T02:02:07.578Z,3.65
2019-02-21T02:03:07.722Z,3.54
2019-02-21T02:04:07.866Z,3.46
2019-02-21T02:05:08.010Z,3.62
2019-02-21T02:06:08.156Z,3.42
2019-02-21T02:07:08.302Z,3.58
2019-02-21T02:08:08.447Z,3.62
2019-02-21T02:09:08.596Z,3.52
2019-02-21T02:10:08.736Z,3.49
2019-02-21T02:11:08.882Z,3.62
2019-02-21T02:12:09.027Z,3.40
2019-02-21T02:13:21.509Z,3.30
2019-02-21T02:14:09.318Z,3.46
2019-02-21T02:15:09.462Z,3.34
2019-02-21T02:16:09.606Z,3.39
2019-02-21T02:17:09.754Z,3.57
2019-02-21T02:18:09.896Z,3.31
2019-02-21T02:19:10.044Z,3.25
2019-02-21T02:20:10.189Z,3.24
2019-02-21T02:21:10.332Z,3.20
2019-02-21T02:22:10.479Z,3.15
2019-02-21T02:23:10.624Z,3.15
2019-02-21T02:24:10.768Z,3.24
2019-02-21T02:25:10.913Z,3.28
2019-02-21T02:26:11.062Z,3.28
2019-02-21T02:27:11.205Z,3.24
2019-02-21T02:28:11.349Z,3.28
2019-02-21T02:29:11.500Z,3.34
2019-02-21T02:30:11.650Z,3.28
2019-02-21T02:31:22.131Z,3.27
2019-02-21T02:32:11.944Z,3.20
2019-02-21T02:33:12.084Z,3.33
2019-02-21T02:34:12.223Z,3.27
2019-02-21T02:35:12.368Z,3.21
2019-02-21T02:36:12.512Z,3.18
2019-02-21T02:37:12.657Z,3.27
2019-02-21T02:38:12.802Z,3.16
2019-02-21T02:39:12.946Z,3.05
2019-02-21T02:40:13.091Z,3.18
2019-02-21T02:41:13.234Z,3.15
2019-02-21T02:42:13.380Z,3.13
2019-02-21T02:43:13.527Z,3.27
2019-02-21T02:44:13.669Z,3.25
2019-02-21T02:45:13.815Z,3.33
2019-02-21T02:46:13.959Z,3.25
2019-02-21T02:47:14.106Z,3.25
2019-02-21T02:48:14.251Z,3.24
2019-02-21T02:49:14.395Z,3.24
2019-02-21T02:50:14.541Z,3.24
2019-02-21T02:51:14.688Z,3.24
2019-02-21T02:52:14.830Z,3.31
2019-02-21T02:53:14.980Z,3.27
2019-02-21T02:54:15.131Z,3.27
2019-02-21T02:55:15.266Z,3.24
2019-02-21T02:56:15.411Z,3.31
2019-02-21T02:57:15.556Z,3.34
2019-02-21T02:58:15.712Z,3.30
2019-02-21T02:59:15.849Z,3.28
2019-02-21T03:00:15.992Z,3.31
2019-02-21T03:01:16.138Z,3.27
2019-02-21T03:02:16.282Z,3.28
2019-02-21T03:03:16.441Z,3.18
2019-02-21T03:04:16.579Z,3.25
2019-02-21T03:05:16.713Z,3.30
2019-02-21T03:06:16.860Z,3.30
2019-02-21T03:07:17.005Z,3.33
2019-02-21T03:08:17.151Z,3.27
2019-02-21T03:09:17.294Z,3.23
2019-02-21T03:10:17.441Z,3.34
2019-02-21T03:11:17.583Z,3.33
2019-02-21T03:12:17.732Z,3.33
2019-02-21T03:13:17.871Z,3.42
2019-02-21T03:14:18.037Z,3.40
2019-02-21T03:15:18.162Z,3.30
2019-02-21T03:16:18.313Z,3.40
2019-02-21T03:17:18.454Z,3.28
2019-02-21T03:18:18.600Z,3.27
2019-02-21T03:19:18.746Z,3.30
2019-02-21T03:20:18.889Z,3.24
2019-02-21T03:21:19.056Z,3.16
2019-02-21T03:22:19.181Z,3.12
2019-02-21T03:23:19.323Z,3.24
2019-02-21T03:24:19.495Z,3.06
2019-02-21T03:25:19.620Z,3.10
2019-02-21T03:26:19.761Z,3.00
2019-02-21T03:27:19.904Z,3.03
2019-02-21T03:28:20.046Z,3.02
2019-02-21T03:29:20.195Z,2.94
2019-02-21T03:30:20.347Z,3.02
2019-02-21T03:31:20.497Z,2.94
2019-02-21T03:32:20.629Z,2.91
2019-02-21T03:33:20.773Z,2.89
2019-02-21T03:34:20.927Z,2.88
2019-02-21T03:35:21.062Z,2.77
2019-02-21T03:36:21.215Z,2.67
2019-02-21T03:37:21.359Z,2.69
2019-02-21T03:38:21.498Z,2.63
2019-02-21T03:39:21.643Z,2.66
2019-02-21T03:40:21.786Z,2.74
2019-02-21T03:41:21.940Z,2.58
2019-02-21T03:42:22.079Z,2.70
2019-02-21T03:43:22.220Z,2.69
2019-02-21T03:44:22.369Z,2.58
2019-02-21T03:45:22.511Z,2.64
2019-02-21T03:46:22.655Z,2.55
2019-02-21T03:47:22.802Z,2.45
2019-02-21T03:48:22.945Z,2.45
2019-02-21T03:49:23.093Z,2.44
2019-02-21T03:50:23.237Z,2.45
2019-02-21T03:51:23.391Z,2.46
2019-02-21T03:52:23.526Z,2.56
2019-02-21T03:53:23.673Z,2.66
2019-02-21T03:54:23.816Z,2.59
2019-02-21T03:55:23.995Z,2.59
2019-02-21T03:56:24.106Z,2.64
2019-02-21T03:57:24.246Z,2.61
2019-02-21T03:58:24.397Z,2.64
2019-02-21T03:59:24.599Z,2.61
2019-02-21T04:00:24.683Z,2.71
2019-02-21T04:01:24.824Z,2.51
2019-02-21T04:02:24.973Z,2.51
2019-02-21T04:03:25.112Z,2.46
2019-02-21T04:04:25.258Z,2.59
2019-02-21T04:05:25.402Z,2.66
2019-02-21T04:06:25.547Z,2.55
2019-02-21T04:07:25.694Z,2.44
2019-02-21T04:08:25.837Z,2.48
2019-02-21T04:09:26.001Z,2.55
2019-02-21T04:10:26.125Z,2.52
2019-02-21T04:11:26.273Z,2.52
2019-02-21T04:12:26.423Z,2.45
2019-02-21T04:13:26.574Z,2.35
2019-02-21T04:14:26.706Z,2.44
2019-02-21T04:15:26.852Z,2.51
2019-02-21T04:16:26.995Z,2.45
2019-02-21T04:17:27.145Z,2.44
2019-02-21T04:18:27.285Z,2.49
2019-02-21T04:19:27.432Z,2.55
2019-02-21T04:20:27.580Z,2.37
2019-02-21T04:21:27.725Z,2.51
2019-02-21T04:22:27.876Z,2.52
2019-02-21T04:23:28.009Z,2.53
2019-02-21T04:24:28.159Z,2.48
2019-02-21T04:25:28.300Z,2.55
2019-02-21T04:26:28.445Z,2.63
2019-02-21T04:27:28.593Z,2.59
2019-02-21T04:28:28.737Z,2.63
2019-02-21T04:29:28.881Z,2.59
2019-02-21T04:30:29.025Z,2.61
2019-02-21T04:31:29.170Z,2.63
2019-02-21T04:32:29.315Z,2.61
2019-02-21T04:33:29.460Z,2.66
2019-02-21T04:34:29.605Z,2.67
2019-02-21T04:35:29.752Z,2.70
2019-02-21T04:36:29.896Z,2.66
2019-02-21T04:37:30.043Z,2.66
2019-02-21T04:38:30.188Z,2.79
2019-02-21T04:39:30.334Z,2.67
2019-02-21T04:40:30.480Z,2.64
2019-02-21T04:41:30.632Z,2.64
2019-02-21T04:42:30.772Z,2.63
2019-02-21T04:43:30.929Z,2.71
2019-02-21T04:44:31.057Z,2.73
2019-02-21T04:45:31.205Z,2.82
2019-02-21T04:46:31.351Z,2.84
2019-02-21T04:47:31.491Z,2.74
2019-02-21T04:48:31.637Z,2.81
2019-02-21T04:49:31.799Z,2.61
2019-02-21T04:50:31.927Z,2.64
2019-02-21T04:51:32.070Z,2.64
2019-02-21T04:52:32.218Z,2.64
2019-02-21T04:53:32.363Z,2.66
2019-02-21T04:54:32.530Z,2.70
2019-02-21T04:55:32.653Z,2.61
2019-02-21T04:56:32.797Z,2.64
2019-02-21T04:57:32.941Z,2.52
2019-02-21T04:58:33.085Z,2.51
2019-02-21T04:59:33.225Z,2.49
2019-02-21T05:00:33.373Z,2.53
2019-02-21T05:01:33.515Z,2.55
2019-02-21T05:02:33.663Z,2.53
2019-02-21T05:03:33.806Z,2.51
2019-02-21T05:04:33.961Z,2.35
2019-02-21T05:05:34.099Z,2.31
2019-02-21T05:06:34.242Z,2.30
2019-02-21T05:07:34.389Z,2.22
2019-02-21T05:08:34.533Z,2.28
2019-02-21T05:09:34.676Z,2.33
2019-02-21T05:10:34.821Z,2.27
2019-02-21T05:11:34.969Z,2.31
2019-02-21T05:12:35.114Z,2.19
2019-02-21T05:13:35.262Z,2.20
2019-02-21T05:14:35.403Z,2.23
2019-02-21T05:15:35.547Z,2.19
2019-02-21T05:16:35.690Z,2.26
2019-02-21T05:17:35.842Z,2.16
2019-02-21T05:18:37.569Z,2.13
2019-02-21T05:19:36.088Z,2.13
2019-02-21T05:20:36.265Z,2.12
2019-02-21T05:21:36.399Z,2.10
2019-02-21T05:22:36.544Z,1.98
2019-02-21T05:23:36.877Z,2.09
2019-02-21T05:24:36.840Z,2.17
2019-02-21T05:25:36.979Z,2.22
2019-02-21T05:26:37.131Z,2.20
2019-02-21T05:27:37.270Z,2.16
2019-02-21T05:28:37.416Z,2.13
2019-02-21T05:29:37.563Z,2.20
2019-02-21T05:30:37.703Z,2.02
2019-02-21T05:31:37.847Z,2.09
2019-02-21T05:32:40.917Z,2.06
2019-02-21T05:33:38.139Z,2.09
2019-02-21T05:34:38.285Z,1.98
2019-02-21T05:35:38.424Z,2.02
2019-02-21T05:36:38.572Z,2.04
2019-02-21T05:37:38.720Z,1.89
2019-02-21T05:38:38.862Z,1.89
2019-02-21T05:39:39.009Z,1.76
2019-02-21T05:40:41.983Z,1.79
2019-02-21T05:41:39.292Z,1.83
2019-02-21T05:42:39.443Z,1.82
2019-02-21T05:43:39.592Z,1.79
2019-02-21T05:44:39.729Z,1.75
2019-02-21T05:45:39.897Z,1.64
2019-02-21T05:46:40.016Z,1.51
2019-02-21T05:47:40.220Z,1.51
2019-02-21T05:48:40.497Z,1.62
2019-02-21T05:49:40.446Z,1.62
2019-02-21T05:50:40.591Z,1.68
2019-02-21T05:51:40.735Z,1.61
2019-02-21T05:52:40.879Z,1.54
2019-02-21T05:53:41.025Z,1.55
2019-02-21T05:54:41.169Z,1.58
2019-02-21T05:55:41.312Z,1.54
2019-02-21T05:56:41.457Z,1.61
2019-02-21T05:57:41.603Z,1.60
2019-02-21T05:58:41.770Z,1.60
2019-02-21T05:59:41.895Z,1.54
2019-02-21T06:00:42.073Z,1.52
2019-02-21T06:01:42.191Z,1.46
2019-02-21T06:02:53.080Z,1.47
2019-02-21T06:03:42.475Z,1.50
2019-02-21T06:04:42.619Z,1.44
2019-02-21T06:05:42.763Z,1.50
2019-02-21T06:06:42.906Z,1.47
2019-02-21T06:07:43.050Z,1.50
2019-02-21T06:08:44.160Z,1.55
2019-02-21T06:09:43.342Z,1.55
2019-02-21T06:10:43.496Z,1.54
2019-02-21T06:11:43.635Z,1.43
2019-02-21T06:12:43.774Z,1.60
2019-02-21T06:13:44.761Z,1.54
2019-02-21T06:14:44.063Z,1.61
2019-02-21T06:15:44.206Z,1.60
2019-02-21T06:16:44.355Z,1.60
2019-02-21T06:17:44.495Z,1.64
2019-02-21T06:18:44.639Z,1.62
2019-02-21T06:19:44.786Z,1.65
2019-02-21T06:20:44.928Z,1.72
2019-02-21T06:21:45.073Z,1.72
2019-02-21T06:22:45.215Z,1.75
2019-02-21T06:23:45.359Z,1.61
2019-02-21T06:24:45.505Z,1.68
2019-02-21T06:25:52.000Z,1.73
2019-02-21T06:26:45.795Z,1.79
2019-02-21T06:27:45.939Z,1.83
2019-02-21T06:28:46.084Z,1.85
2019-02-21T06:29:46.227Z,1.90
2019-02-21T06:30:46.370Z,1.87
2019-02-21T06:31:46.516Z,1.90
2019-02-21T06:32:46.659Z,1.85
2019-02-21T06:33:49.389Z,1.90
2019-02-21T06:34:46.952Z,1.87
2019-02-21T06:35:47.093Z,1.94
2019-02-21T06:36:47.267Z,1.91
2019-02-21T06:37:47.383Z,2.02
2019-02-21T06:38:47.526Z,2.01
2019-02-21T06:39:47.672Z,1.87
2019-02-21T06:40:47.817Z,1.98
2019-02-21T06:41:58.737Z,1.91
2019-02-21T06:42:48.102Z,1.90
2019-02-21T06:43:48.251Z,2.04
2019-02-21T06:44:48.392Z,2.02
2019-02-21T06:45:48.535Z,2.09
2019-02-21T06:46:48.680Z,2.16
2019-02-21T06:47:48.829Z,2.17
2019-02-21T06:48:51.489Z,2.12
2019-02-21T06:49:49.113Z,2.12
2019-02-21T06:50:49.257Z,2.16
2019-02-21T06:51:49.400Z,2.31
2019-02-21T06:52:49.546Z,2.31
2019-02-21T06:53:49.689Z,2.31
2019-02-21T06:54:49.834Z,2.30
2019-02-21T06:55:49.981Z,2.34
2019-02-21T06:56:50.124Z,2.30
2019-02-21T06:57:50.271Z,2.40
2019-02-21T06:58:50.414Z,2.33
2019-02-21T06:59:50.557Z,2.45
2019-02-21T07:00:50.708Z,2.48
2019-02-21T07:01:50.849Z,2.51
2019-02-21T07:02:50.991Z,2.63
2019-02-21T07:03:51.138Z,2.51
2019-02-21T07:04:51.281Z,2.55
2019-02-21T07:05:51.425Z,2.44
2019-02-21T07:06:51.574Z,2.51
2019-02-21T07:07:51.714Z,2.53
2019-02-21T07:08:54.141Z,2.46
2019-02-21T07:09:52.005Z,2.52
2019-02-21T07:10:52.147Z,2.59
2019-02-21T07:11:52.294Z,2.69
2019-02-21T07:12:52.440Z,2.64
2019-02-21T07:13:52.584Z,2.67
2019-02-21T07:14:52.730Z,2.67
2019-02-21T07:15:52.874Z,2.69
2019-02-21T07:16:53.034Z,2.59
2019-02-21T07:17:53.164Z,2.58
2019-02-21T07:18:53.310Z,2.56
2019-02-21T07:19:53.454Z,2.52
2019-02-21T07:20:53.600Z,2.66
2019-02-21T07:21:53.745Z,2.64
2019-02-21T07:22:53.892Z,2.69
2019-02-21T07:23:54.037Z,2.59
2019-02-21T07:24:54.262Z,2.79
2019-02-21T07:25:54.330Z,2.69
2019-02-21T07:26:54.472Z,2.69
2019-02-21T07:27:54.617Z,2.76
2019-02-21T07:28:54.765Z,2.74
2019-02-21T07:29:54.912Z,2.77
2019-02-21T07:30:55.055Z,2.85
2019-02-21T07:31:55.200Z,2.87
2019-02-21T07:32:55.347Z,2.88
2019-02-21T07:33:55.498Z,2.87
2019-02-21T07:34:55.640Z,2.71
2019-02-21T07:35:55.784Z,2.81
2019-02-21T07:36:55.932Z,2.91
2019-02-21T07:37:56.077Z,2.92
2019-02-21T07:39:08.504Z,2.95
2019-02-21T07:39:56.368Z,2.97
2019-02-21T07:40:56.541Z,2.91
2019-02-21T07:41:56.660Z,2.89
2019-02-21T07:42:58.739Z,2.85
2019-02-21T07:43:56.951Z,2.82
2019-02-21T07:44:59.584Z,2.81
2019-02-21T07:45:57.244Z,2.91
2019-02-21T07:46:57.393Z,2.92
2019-02-21T07:47:57.535Z,2.92
2019-02-21T07:48:57.683Z,2.85
2019-02-21T07:49:57.827Z,3.06
2019-02-21T07:50:57.973Z,3.06
2019-02-21T07:51:58.118Z,3.20
2019-02-21T07:53:02.493Z,3.24
2019-02-21T07:53:58.408Z,3.23
2019-02-21T07:55:01.945Z,3.28
2019-02-21T07:55:58.700Z,3.16
2019-02-21T07:56:58.850Z,3.09
2019-02-21T07:57:58.993Z,3.13
2019-02-21T07:58:59.138Z,3.06
2019-02-21T07:59:59.286Z,3.15
2019-02-21T08:00:59.432Z,3.05
2019-02-21T08:01:59.576Z,3.06
2019-02-21T08:02:59.721Z,3.09
2019-02-21T08:03:59.867Z,3.12
2019-02-21T08:05:01.936Z,3.16
2019-02-21T08:06:00.168Z,3.28
2019-02-21T08:07:00.305Z,3.40
2019-02-21T08:08:00.449Z,3.36
2019-02-21T08:09:00.594Z,3.46
2019-02-21T08:10:00.742Z,3.36
2019-02-21T08:11:00.889Z,3.39
2019-02-21T08:12:01.033Z,3.31
2019-02-21T08:13:01.176Z,3.28
2019-02-21T08:14:01.322Z,3.28
2019-02-21T08:15:01.475Z,3.16
2019-02-21T08:16:01.617Z,3.23
2019-02-21T08:17:01.762Z,3.27
2019-02-21T08:18:01.914Z,3.18
2019-02-21T08:19:02.052Z,3.27
2019-02-21T08:20:08.438Z,3.30
2019-02-21T08:21:02.341Z,3.43
2019-02-21T08:22:02.489Z,3.47
2019-02-21T08:23:03.107Z,3.61
2019-02-21T08:24:02.780Z,3.71
2019-02-21T08:25:02.928Z,3.70
2019-02-21T08:26:03.071Z,3.68
2019-02-21T08:27:03.222Z,3.70
2019-02-21T08:28:03.367Z,3.71
2019-02-21T08:29:06.007Z,3.86
2019-02-21T08:30:03.668Z,4.04
2019-02-21T08:31:03.801Z,4.12
2019-02-21T08:32:03.947Z,4.18
2019-02-21T08:33:04.101Z,4.33
2019-02-21T08:34:04.573Z,4.47
2019-02-21T08:35:06.826Z,4.40
2019-02-21T08:36:04.533Z,4.37
2019-02-21T08:37:04.677Z,4.57
2019-02-21T08:38:04.824Z,4.36
2019-02-21T08:39:04.970Z,4.42
2019-02-21T08:40:05.122Z,4.37
2019-02-21T08:41:05.263Z,4.39
2019-02-21T08:42:05.415Z,4.51
2019-02-21T08:43:05.576Z,4.69
2019-02-21T08:44:05.703Z,4.42
2019-02-21T08:45:05.848Z,4.39
2019-02-21T08:46:05.993Z,4.43
2019-02-21T08:47:06.150Z,4.37
2019-02-21T08:48:06.310Z,4.40
2019-02-21T08:49:06.430Z,4.50
2019-02-21T08:50:06.580Z,4.55
2019-02-21T08:51:06.734Z,4.55
2019-02-21T08:52:06.873Z,4.52
2019-02-21T08:53:07.026Z,4.54
2019-02-21T08:54:07.166Z,4.64
2019-02-21T08:55:07.314Z,4.55
2019-02-21T08:56:07.461Z,4.47
2019-02-21T08:57:07.609Z,4.42
2019-02-21T08:58:08.033Z,4.43
2019-02-21T08:59:07.904Z,4.37
2019-02-21T09:00:10.810Z,4.46
2019-02-21T09:01:08.194Z,4.51
2019-02-21T09:02:08.343Z,4.52
2019-02-21T09:03:08.487Z,4.46
2019-02-21T09:04:14.838Z,4.39
2019-02-21T09:05:09.529Z,4.42
2019-02-21T09:06:08.927Z,4.39
2019-02-21T09:07:09.083Z,4.44
2019-02-21T09:08:09.222Z,4.51
2019-02-21T09:09:09.370Z,4.52
2019-02-21T09:10:09.515Z,4.55
2019-02-21T09:11:09.667Z,4.47
2019-02-21T09:12:09.810Z,4.58
2019-02-21T09:13:09.956Z,4.64
2019-02-21T09:14:10.103Z,4.61
2019-02-21T09:15:10.251Z,4.57
2019-02-21T09:16:10.402Z,4.69
2019-02-21T09:17:10.545Z,4.62
2019-02-21T09:18:10.691Z,4.34
2019-02-21T09:19:10.837Z,4.39
2019-02-21T09:20:10.986Z,4.51
2019-02-21T09:21:11.131Z,4.50
2019-02-21T09:22:11.278Z,4.57
2019-02-21T09:23:11.428Z,4.52
2019-02-21T09:24:13.701Z,4.52
2019-02-21T09:25:11.728Z,4.69
2019-02-21T09:26:11.867Z,4.67
2019-02-21T09:27:12.015Z,4.72
2019-02-21T09:28:12.185Z,4.84
2019-02-21T09:29:12.310Z,4.83
2019-02-21T09:30:12.455Z,4.84
2019-02-21T09:31:12.601Z,4.95
2019-02-21T09:32:12.754Z,5.09
2019-02-21T09:33:17.341Z,5.17
2019-02-21T09:34:20.825Z,5.27
2019-02-21T09:35:13.187Z,5.38
2019-02-21T09:36:13.333Z,5.49
2019-02-21T09:37:13.480Z,5.40
2019-02-21T09:38:13.628Z,5.40
2019-02-21T09:39:15.958Z,5.49
2019-02-21T09:40:13.921Z,5.59
2019-02-21T09:41:14.125Z,5.85
2019-02-21T09:42:14.215Z,5.81
2019-02-21T09:43:14.359Z,5.86
2019-02-21T09:44:14.508Z,6.01
2019-02-21T09:45:15.009Z,6.03
2019-02-21T09:46:14.803Z,6.28
2019-02-21T09:47:14.950Z,6.48
2019-02-21T09:48:15.094Z,6.47
2019-02-21T09:49:15.240Z,6.53
2019-02-21T09:50:15.389Z,6.59
2019-02-21T09:51:18.022Z,6.69
2019-02-21T09:52:15.684Z,6.91
2019-02-21T09:53:15.831Z,7.05
2019-02-21T09:54:15.984Z,7.22
2019-02-21T09:55:16.132Z,7.35
2019-02-21T09:56:16.289Z,7.20
2019-02-21T09:57:16.425Z,7.13
2019-02-21T09:58:16.576Z,7.12
2019-02-21T09:59:16.759Z,7.24
2019-02-21T10:00:16.866Z,7.22
2019-02-21T10:01:17.014Z,7.29
2019-02-21T10:02:17.159Z,7.22
2019-02-21T10:03:17.308Z,7.32
2019-02-21T10:04:17.456Z,7.26
2019-02-21T10:05:17.606Z,7.55
2019-02-21T10:06:17.752Z,7.55
2019-02-21T10:07:17.899Z,7.59
2019-02-21T10:08:18.049Z,7.63
2019-02-21T10:09:18.195Z,7.79
2019-02-21T10:10:18.346Z,8.00
2019-02-21T10:11:18.493Z,8.22
2019-02-21T10:12:18.640Z,8.15
2019-02-21T10:13:18.793Z,8.30
2019-02-21T10:14:21.369Z,8.35
2019-02-21T10:15:19.088Z,8.40
2019-02-21T10:16:19.237Z,8.28
2019-02-21T10:17:19.385Z,8.37
2019-02-21T10:18:19.533Z,8.26
2019-02-21T10:19:19.685Z,8.33
2019-02-21T10:20:19.837Z,8.26
2019-02-21T10:21:19.981Z,8.35
2019-02-21T10:22:20.130Z,8.22
2019-02-21T10:23:20.395Z,8.20
2019-02-21T10:24:20.430Z,8.11
2019-02-21T10:25:22.999Z,8.08
2019-02-21T10:26:20.726Z,8.03
2019-02-21T10:27:20.875Z,8.12
2019-02-21T10:28:21.024Z,8.07
2019-02-21T10:29:21.173Z,8.11
2019-02-21T10:30:21.324Z,8.10
2019-02-21T10:31:21.473Z,8.07
2019-02-21T10:32:21.624Z,8.14
2019-02-21T10:33:21.772Z,8.26
2019-02-21T10:34:22.028Z,8.30
2019-02-21T10:35:22.070Z,8.50
2019-02-21T10:36:22.218Z,8.62
2019-02-21T10:37:22.364Z,8.76
2019-02-21T10:38:22.516Z,8.81
2019-02-21T10:39:22.663Z,8.97
2019-02-21T10:40:22.813Z,9.27
2019-02-21T10:41:22.961Z,9.25
2019-02-21T10:42:23.110Z,9.05
2019-02-21T10:43:23.271Z,9.01
2019-02-21T10:44:23.406Z,9.10
2019-02-21T10:45:23.556Z,9.34
2019-02-21T10:46:23.703Z,9.43
2019-02-21T10:47:23.855Z,9.28
2019-02-21T10:48:24.002Z,9.42
2019-02-21T10:49:24.153Z,9.58
2019-02-21T10:50:24.302Z,9.61
2019-02-21T10:51:24.454Z,9.61
2019-02-21T10:52:24.602Z,9.61
2019-02-21T10:53:24.752Z,9.52
2019-02-21T10:54:24.906Z,9.50
2019-02-21T10:55:25.057Z,9.52
2019-02-21T10:56:25.207Z,9.60
2019-02-21T10:57:25.355Z,9.60
2019-02-21T10:58:25.508Z,9.73
2019-02-21T10:59:25.662Z,9.91
2019-02-21T11:00:25.815Z,9.86
2019-02-21T11:01:25.956Z,9.86
2019-02-21T11:02:26.105Z,9.86
2019-02-21T11:03:26.253Z,9.79
2019-02-21T11:04:26.400Z,9.81
2019-02-21T11:05:26.555Z,9.76
2019-02-21T11:06:26.698Z,9.75
2019-02-21T11:07:26.849Z,9.88
2019-02-21T11:08:27.000Z,9.96
2019-02-21T11:09:27.150Z,10.04
2019-02-21T11:10:27.300Z,10.14
2019-02-21T11:11:27.453Z,10.18
2019-02-21T11:12:27.601Z,10.14
2019-02-21T11:13:27.749Z,10.26
2019-02-21T11:14:27.901Z,10.39
2019-02-21T11:15:28.049Z,10.32
2019-02-21T11:16:28.198Z,10.37
2019-02-21T11:17:28.349Z,10.56
2019-02-21T11:18:28.500Z,10.68
2019-02-21T11:19:28.649Z,10.73
2019-02-21T11:20:28.800Z,11.06
2019-02-21T11:21:28.952Z,11.25
2019-02-21T11:22:29.098Z,11.34
2019-02-21T11:23:29.249Z,11.44
2019-02-21T11:24:29.398Z,11.64
2019-02-21T11:25:29.548Z,11.65
2019-02-21T11:26:29.697Z,11.49
2019-02-21T11:27:29.850Z,11.77
2019-02-21T11:28:30.010Z,11.68
2019-02-21T11:29:30.152Z,11.64
2019-02-21T11:30:30.311Z,11.82
2019-02-21T11:31:30.459Z,11.87
2019-02-21T11:32:30.610Z,11.83
2019-02-21T11:33:30.761Z,11.85
2019-02-21T11:34:30.908Z,11.94
2019-02-21T11:35:31.065Z,12.11
2019-02-21T11:36:31.211Z,11.99
2019-02-21T11:37:42.417Z,11.96
2019-02-21T11:38:31.511Z,12.05
2019-02-21T11:39:31.665Z,12.04
2019-02-21T11:40:31.814Z,12.11
2019-02-21T11:41:31.964Z,11.77
2019-02-21T11:42:32.117Z,11.90
2019-02-21T11:43:32.271Z,11.77
2019-02-21T11:44:32.419Z,11.77
2019-02-21T11:45:32.571Z,11.86
2019-02-21T11:46:32.723Z,11.77
2019-02-21T11:47:32.872Z,11.64
2019-02-21T11:48:33.027Z,11.64
2019-02-21T11:49:33.171Z,11.61
2019-02-21T11:50:33.380Z,11.72
2019-02-21T11:51:33.478Z,11.87
2019-02-21T11:52:33.625Z,11.97
2019-02-21T11:53:33.783Z,12.11
2019-02-21T11:54:33.938Z,12.30
2019-02-21T11:55:34.115Z,12.39
2019-02-21T11:56:34.241Z,12.59
2019-02-21T11:57:34.387Z,12.95
2019-02-21T11:58:34.538Z,12.96
2019-02-21T11:59:34.691Z,12.96
2019-02-21T12:00:34.840Z,12.69
2019-02-21T12:01:34.993Z,12.54
2019-02-21T12:02:38.749Z,12.42
2019-02-21T12:03:35.294Z,12.29
2019-02-21T12:04:35.447Z,12.20
2019-02-21T12:05:35.599Z,11.94
2019-02-21T12:06:35.748Z,11.99
2019-02-21T12:07:35.901Z,11.86
2019-02-21T12:08:36.064Z,11.80
2019-02-21T12:09:36.222Z,11.85
2019-02-21T12:10:36.350Z,11.85
2019-02-21T12:11:36.521Z,11.89
2019-02-21T12:12:36.686Z,11.89
2019-02-21T12:13:36.829Z,11.72
2019-02-21T12:14:36.980Z,11.70
2019-02-21T12:15:37.135Z,11.61
2019-02-21T12:16:37.280Z,11.67
2019-02-21T12:17:37.451Z,11.61
2019-02-21T12:18:37.584Z,11.64
2019-02-21T12:19:37.737Z,11.70
2019-02-21T12:20:37.886Z,11.65
2019-02-21T12:21:38.038Z,11.61
2019-02-21T12:22:38.193Z,11.61
2019-02-21T12:23:38.340Z,11.59
2019-02-21T12:24:38.493Z,11.59
2019-02-21T12:25:38.642Z,11.53
2019-02-21T12:26:38.795Z,11.47
2019-02-21T12:27:38.947Z,11.43
2019-02-21T12:28:39.094Z,11.52
2019-02-21T12:29:39.246Z,11.46
2019-02-21T12:30:39.398Z,11.39
2019-02-21T12:31:39.548Z,11.54
2019-02-21T12:32:39.698Z,11.50
2019-02-21T12:33:39.850Z,11.57
2019-02-21T12:34:39.999Z,11.67
2019-02-21T12:35:40.149Z,11.47
2019-02-21T12:36:40.304Z,11.52
2019-02-21T12:37:40.454Z,11.57
2019-02-21T12:38:40.609Z,11.70
2019-02-21T12:39:40.754Z,11.70
2019-02-21T12:40:40.904Z,11.86
2019-02-21T12:41:41.055Z,12.06
2019-02-21T12:42:41.207Z,11.99
2019-02-21T12:43:41.359Z,12.05
2019-02-21T12:44:41.507Z,12.02
2019-02-21T12:45:41.660Z,12.20
2019-02-21T12:46:41.811Z,12.42
2019-02-21T12:47:49.525Z,12.48
2019-02-21T12:48:42.115Z,12.56
2019-02-21T12:49:42.263Z,12.54
2019-02-21T12:50:44.507Z,12.63
2019-02-21T12:51:42.567Z,12.62
2019-02-21T12:52:42.722Z,12.37
2019-02-21T12:53:42.873Z,12.42
2019-02-21T12:54:43.024Z,12.34
2019-02-21T12:55:43.174Z,12.51
2019-02-21T12:56:43.326Z,12.37
2019-02-21T12:57:43.479Z,12.15
2019-02-21T12:58:45.247Z,12.12
2019-02-21T12:59:43.783Z,11.86
2019-02-21T13:00:43.931Z,11.89
2019-02-21T13:01:44.081Z,12.05
2019-02-21T13:02:44.232Z,12.01
2019-02-21T13:03:44.383Z,11.93
2019-02-21T13:04:44.533Z,12.06
2019-02-21T13:05:44.780Z,12.05
2019-02-21T13:06:44.836Z,11.99
2019-02-21T13:07:44.987Z,11.86
2019-02-21T13:08:45.140Z,11.90
2019-02-21T13:09:45.305Z,11.85
2019-02-21T13:10:45.441Z,11.85
2019-02-21T13:11:45.591Z,11.96
2019-02-21T13:12:45.742Z,11.93
2019-02-21T13:13:45.895Z,12.02
2019-02-21T13:14:46.042Z,12.04
2019-02-21T13:15:46.197Z,12.08
2019-02-21T13:16:46.344Z,12.04